Time;durP1;ratioP1;P1;durP2;ratioP2;P2;SDS_P1;SDS_P2;PMS_P1;PMS_P2;Temp;Humidity;BMP_temperature;BMP_pressure;BME280_temperature;BME280_humidity;BME280_pressure;Samples;Min_cycle;Max_cycle;Signal;HPM_P1;HPM_P2
2023/05/12 00:00:18;;;;;;;4.43;3.37;;;;;;;9.11;72.69;97453.69;5006252;28;20188;-64
2023/05/12 00:02:46;;;;;;;5.63;3.30;;;;;;;9.28;72.35;97465.13;5007156;28;20693;-65
2023/05/12 00:05:13;;;;;;;3.40;2.93;;;;;;;9.34;71.96;97454.59;5006697;28;20199;-65
2023/05/12 00:07:40;;;;;;;4.17;3.10;;;;;;;9.41;72.36;97466.41;5007015;28;20191;-66
2023/05/12 00:10:07;;;;;;;3.87;2.83;;;;;;;9.46;71.99;97458.50;5007756;28;20199;-68
2023/05/12 00:12:34;;;;;;;3.50;3.20;;;;;;;9.52;71.45;97453.94;5007108;28;20195;-65
2023/05/12 00:15:02;;;;;;;4.13;3.73;;;;;;;9.55;71.26;97465.94;5007350;28;20246;-65
2023/05/12 00:17:33;;;;;;;3.67;3.07;;;;;;;9.68;70.76;97457.69;5006192;28;20666;-67
2023/05/12 00:20:00;;;;;;;4.83;3.50;;;;;;;9.44;70.41;97461.13;5005607;28;20698;-73
2023/05/12 00:22:31;;;;;;;4.77;3.47;;;;;;;9.58;70.29;97456.31;5007920;28;20203;-73
2023/05/12 00:24:58;;;;;;;4.73;3.10;;;;;;;9.57;70.22;97452.06;5006713;28;20606;-74
2023/05/12 00:27:25;;;;;;;4.87;2.80;;;;;;;9.49;70.43;97437.72;5007788;28;20190;-67
2023/05/12 00:29:52;;;;;;;4.70;3.10;;;;;;;9.59;70.23;97449.41;5007039;28;20191;-63
2023/05/12 00:32:19;;;;;;;3.73;3.30;;;;;;;9.66;70.24;97441.41;5007373;28;20574;-64
2023/05/12 00:34:46;;;;;;;4.57;2.93;;;;;;;9.63;69.72;97446.66;5007339;28;20729;-65
2023/05/12 00:37:13;;;;;;;4.47;2.87;;;;;;;9.52;69.72;97446.19;5006872;28;20246;-68
2023/05/12 00:39:40;;;;;;;5.67;2.87;;;;;;;9.49;70.03;97450.63;4989705;28;20217;-70
2023/05/12 00:42:07;;;;;;;3.60;2.90;;;;;;;9.40;70.07;97441.44;5006553;28;20583;-64
2023/05/12 00:44:35;;;;;;;5.20;3.43;;;;;;;9.52;69.74;97450.53;5022605;28;20722;-65
2023/05/12 00:47:03;;;;;;;4.10;3.47;;;;;;;9.24;70.14;97444.59;5005195;28;20187;-65
2023/05/12 00:49:30;;;;;;;4.70;2.80;;;;;;;9.19;70.50;97443.94;5007264;28;20183;-67
2023/05/12 00:51:58;;;;;;;6.10;2.93;;;;;;;9.17;70.42;97438.81;5005648;28;20219;-65
2023/05/12 00:54:26;;;;;;;4.07;2.70;;;;;;;9.24;70.24;97440.28;5006829;28;20230;-67
2023/05/12 00:56:53;;;;;;;2.83;2.57;;;;;;;9.31;70.15;97434.03;5006026;28;20218;-68
2023/05/12 00:59:22;;;;;;;3.17;2.27;;;;;;;9.30;69.35;97441.81;5005007;28;20214;-64
2023/05/12 01:01:49;;;;;;;5.83;3.20;;;;;;;9.18;69.29;97432.75;5005965;28;20274;-64
2023/05/12 01:04:16;;;;;;;4.30;3.00;;;;;;;9.07;69.69;97442.59;5005035;28;20187;-63
2023/05/12 01:06:52;;;;;;;4.27;3.33;;;;;;;9.19;70.29;97439.59;5005743;28;20194;-63
2023/05/12 01:09:20;;;;;;;3.30;2.73;;;;;;;9.22;69.21;97447.25;5005364;28;20662;-64
2023/05/12 01:11:47;;;;;;;4.63;3.30;;;;;;;9.23;69.99;97443.78;5005249;28;20670;-65
2023/05/12 01:14:16;;;;;;;7.07;4.50;;;;;;;9.09;70.13;97447.72;5005596;28;20698;-65
2023/05/12 01:16:51;;;;;;;6.97;4.47;;;;;;;9.09;70.66;97447.72;5006423;28;20282;-63
2023/05/12 01:19:41;;;;;;;4.83;3.30;;;;;;;9.16;70.15;97444.88;5006941;28;20230;-67
2023/05/12 01:22:11;;;;;;;5.30;3.17;;;;;;;8.99;71.06;97444.59;5005260;28;20239;-66
2023/05/12 01:25:03;;;;;;;5.60;3.13;;;;;;;9.17;70.08;97448.31;5005390;28;20238;-63
2023/05/12 01:27:32;;;;;;;3.67;2.73;;;;;;;9.14;69.86;97445.81;5005536;28;20239;-63
2023/05/12 01:30:02;;;;;;;6.43;3.17;;;;;;;9.03;70.29;97443.59;5004565;28;20202;-64
2023/05/12 01:32:35;;;;;;;4.80;3.27;;;;;;;8.91;70.72;97444.00;5006845;28;20273;-63
2023/05/12 01:35:03;;;;;;;3.03;2.60;;;;;;;8.70;71.30;97436.94;5004826;28;20245;-63
2023/05/12 01:37:32;;;;;;;2.97;2.47;;;;;;;8.59;71.75;97439.88;5004827;28;20614;-62
2023/05/12 01:40:02;;;;;;;4.37;2.60;;;;;;;8.60;72.37;97436.41;5005204;28;20245;-68
2023/05/12 01:42:30;;;;;;;4.40;2.63;;;;;;;8.53;72.03;97442.63;5006140;28;20201;-64
2023/05/12 01:44:58;;;;;;;3.73;2.63;;;;;;;8.45;71.87;97454.13;5005421;28;20194;-65
2023/05/12 01:47:26;;;;;;;2.60;2.40;;;;;;;8.55;72.37;97445.19;5005699;28;20253;-65
2023/05/12 01:50:04;;;;;;;3.40;2.90;;;;;;;8.58;72.06;97450.25;5005103;28;20587;-65
2023/05/12 01:52:32;;;;;;;4.33;3.03;;;;;;;8.63;72.00;97448.38;5004817;28;20338;-63
2023/05/12 01:54:59;;;;;;;5.43;3.57;;;;;;;8.62;71.54;97450.09;5004784;28;20716;-63
2023/05/12 01:57:31;;;;;;;7.17;2.93;;;;;;;8.65;71.56;97456.91;5006167;28;20192;-62
2023/05/12 02:00:00;;;;;;;4.13;3.37;;;;;;;8.09;72.63;97454.28;5005484;28;20663;-66
2023/05/12 02:02:33;;;;;;;3.50;3.10;;;;;;;7.59;74.94;97444.56;5010161;28;20289;-64
2023/05/12 02:05:00;;;;;;;4.07;2.60;;;;;;;7.25;75.81;97454.09;5008095;28;20220;-73
2023/05/12 02:07:29;;;;;;;4.13;2.97;;;;;;;6.99;75.83;97436.72;5009840;28;20582;-64
2023/05/12 02:09:57;;;;;;;7.37;3.03;;;;;;;7.05;76.26;97449.44;5008264;28;20187;-65
2023/05/12 02:12:25;;;;;;;3.33;2.83;;;;;;;7.01;76.81;97454.69;5008359;28;20221;-64
2023/05/12 02:14:52;;;;;;;3.33;2.83;;;;;;;7.05;76.78;97444.28;5008490;28;20288;-65
2023/05/12 02:17:19;;;;;;;3.97;3.27;;;;;;;7.16;76.44;97456.88;5007760;28;20648;-63
2023/05/12 02:19:48;;;;;;;4.07;2.60;;;;;;;7.13;75.94;97415.78;5009805;28;20300;-64
2023/05/12 02:22:15;;;;;;;4.00;3.30;;;;;;;7.38;76.05;97451.13;5007639;28;20201;-64
2023/05/12 02:24:42;;;;;;;3.30;2.97;;;;;;;7.14;76.50;97456.94;5008267;28;20197;-63
2023/05/12 02:27:09;;;;;;;3.47;2.70;;;;;;;6.98;76.84;97454.78;5009064;28;20202;-63
2023/05/12 02:29:36;;;;;;;3.83;2.30;;;;;;;7.04;75.72;97446.91;5007906;28;20189;-63
2023/05/12 02:32:04;;;;;;;3.27;2.40;;;;;;;7.22;75.13;97451.56;5008005;28;20698;-67
2023/05/12 02:34:32;;;;;;;3.50;2.40;;;;;;;7.45;74.91;97451.81;5007476;28;20237;-64
2023/05/12 02:36:58;;;;;;;2.47;2.00;;;;;;;7.47;73.41;97455.22;5008431;28;20205;-67
2023/05/12 02:39:26;;;;;;;2.63;2.30;;;;;;;7.24;74.45;97439.50;5007190;28;20217;-66
2023/05/12 02:41:53;;;;;;;4.73;2.70;;;;;;;7.05;75.90;97443.44;5008219;28;20575;-63
2023/05/12 02:44:21;;;;;;;4.77;2.70;;;;;;;7.08;76.60;97438.22;5007479;28;20266;-71
2023/05/12 02:46:49;;;;;;;4.17;2.67;;;;;;;7.12;76.77;97438.09;5008936;28;20281;-63
2023/05/12 02:49:17;;;;;;;6.13;3.03;;;;;;;7.26;75.82;97446.31;4991332;28;20193;-63
2023/05/12 02:51:47;;;;;;;8.63;2.93;;;;;;;7.31;77.19;97447.06;5007436;28;20192;-63
2023/05/12 02:54:14;;;;;;;4.17;2.67;;;;;;;7.37;76.46;97446.88;5009039;28;20198;-64
2023/05/12 02:56:41;;;;;;;4.43;2.87;;;;;;;7.62;77.14;97446.22;5008126;28;20645;-64
2023/05/12 02:59:08;;;;;;;3.63;3.00;;;;;;;7.88;75.83;97447.16;5009650;28;20205;-64
2023/05/12 03:01:35;;;;;;;2.93;2.50;;;;;;;7.96;75.35;97452.94;5007081;28;20200;-66
2023/05/12 03:04:02;;;;;;;4.93;3.10;;;;;;;7.98;75.29;97445.16;5008676;28;20682;-71
2023/05/12 03:06:30;;;;;;;4.47;3.57;;;;;;;7.75;75.17;97439.84;4991274;28;20195;-75
2023/05/12 03:08:58;;;;;;;7.00;3.70;;;;;;;7.53;77.61;97442.16;4974631;28;20208;-73
2023/05/12 03:11:26;;;;;;;6.97;4.47;;;;;;;7.59;76.41;97449.72;4974667;28;20205;-64
2023/05/12 03:13:53;;;;;;;6.43;4.27;;;;;;;7.51;77.21;97450.81;5006684;28;20183;-63
2023/05/12 03:16:20;;;;;;;6.47;4.07;;;;;;;7.66;77.90;97461.56;5003494;28;20649;-63
2023/05/12 03:18:48;;;;;;;4.67;3.93;;;;;;;7.76;77.50;97452.69;5006350;28;20288;-64
2023/05/12 03:21:15;;;;;;;6.43;3.60;;;;;;;7.71;77.15;97459.69;5008729;28;20208;-63
2023/05/12 03:23:41;;;;;;;4.30;3.50;;;;;;;7.76;76.95;97457.84;4990617;28;20202;-64
2023/05/12 03:26:08;;;;;;;5.77;3.77;;;;;;;7.66;77.93;97460.69;5006976;28;20204;-65
2023/05/12 03:28:35;;;;;;;4.57;4.17;;;;;;;7.71;78.86;97458.81;5006916;28;20179;-64
2023/05/12 03:31:02;;;;;;;7.77;4.90;;;;;;;7.70;78.93;97464.88;5008808;28;20209;-63
2023/05/12 03:33:30;;;;;;;7.47;5.23;;;;;;;7.80;78.20;97464.59;4998232;28;20694;-65
2023/05/12 03:35:57;;;;;;;7.17;5.07;;;;;;;7.76;78.59;97447.53;4987737;28;20289;-64
2023/05/12 03:38:25;;;;;;;7.53;5.40;;;;;;;8.09;77.61;97468.91;4987373;28;20190;-64
2023/05/12 03:41:05;;;;;;;9.30;5.57;;;;;;;8.08;77.31;97472.38;4988194;28;20191;-64
2023/05/12 03:43:34;;;;;;;6.87;5.10;;;;;;;8.21;77.23;97477.13;4986781;28;20588;-63
2023/05/12 03:46:02;;;;;;;11.50;6.50;;;;;;;8.26;77.64;97477.03;4987042;28;20193;-64
2023/05/12 03:48:29;;;;;;;7.40;6.30;;;;;;;8.36;76.88;97480.19;4987635;28;20192;-76
2023/05/12 03:50:57;;;;;;;9.07;6.57;;;;;;;8.48;76.07;97484.97;4971497;28;20223;-67
2023/05/12 03:53:25;;;;;;;6.83;6.07;;;;;;;8.33;76.59;97486.28;4990444;28;20629;-69
2023/05/12 03:55:52;;;;;;;8.40;6.07;;;;;;;8.09;77.95;97490.41;4996468;28;20282;-64
2023/05/12 03:58:19;;;;;;;9.07;6.13;;;;;;;8.11;78.37;97490.34;4996279;28;20289;-63
2023/05/12 04:00:48;;;;;;;7.60;6.40;;;;;;;8.21;77.64;97490.03;4994602;28;20258;-63
2023/05/12 04:03:16;;;;;;;7.90;6.50;;;;;;;8.24;77.65;97484.78;5004590;28;20316;-66
2023/05/12 04:05:43;;;;;;;7.40;6.37;;;;;;;8.39;77.94;97498.16;5005779;28;20282;-66
2023/05/12 04:08:11;;;;;;;7.77;5.80;;;;;;;8.51;77.99;97492.63;5004750;28;20237;-64
2023/05/12 04:10:39;;;;;;;7.13;5.90;;;;;;;8.30;78.03;97501.00;5000243;28;20195;-64
2023/05/12 04:13:07;;;;;;;7.53;5.97;;;;;;;8.31;79.13;97507.84;4995327;28;20217;-78
2023/05/12 04:15:35;;;;;;;7.13;6.00;;;;;;;8.28;79.39;97502.78;5004255;28;20214;-64
2023/05/12 04:18:02;;;;;;;8.33;5.43;;;;;;;8.33;79.95;97499.19;4989513;28;20233;-64
2023/05/12 04:20:29;;;;;;;11.03;5.57;;;;;;;8.67;78.58;97506.75;4987396;28;20245;-63
2023/05/12 04:22:56;;;;;;;7.97;5.73;;;;;;;8.60;78.48;97515.56;4985246;28;20203;-63
2023/05/12 04:25:24;;;;;;;8.93;5.83;;;;;;;8.70;78.32;97506.66;4986278;28;20219;-68
2023/05/12 04:27:50;;;;;;;9.43;7.00;;;;;;;8.82;78.27;97514.03;4986791;28;20199;-64
2023/05/12 04:30:18;;;;;;;9.57;5.20;;;;;;;8.86;78.27;97507.88;4987807;28;20245;-63
2023/05/12 04:32:45;;;;;;;6.47;5.27;;;;;;;8.83;78.02;97507.97;4985918;28;20642;-64
2023/05/12 04:35:12;;;;;;;9.27;4.80;;;;;;;8.68;78.05;97498.09;4986181;28;20276;-64
2023/05/12 04:37:40;;;;;;;8.30;5.13;;;;;;;8.79;78.61;97512.41;4986246;28;20246;-64
2023/05/12 04:40:07;;;;;;;7.83;5.67;;;;;;;8.79;78.63;97517.56;4985664;28;20188;-64
2023/05/12 04:42:35;;;;;;;7.93;5.70;;;;;;;8.84;77.91;97504.50;4986384;28;20223;-64
2023/05/12 04:45:02;;;;;;;8.20;5.20;;;;;;;8.99;77.91;97511.75;4985280;28;20202;-66
2023/05/12 04:47:32;;;;;;;8.23;6.33;;;;;;;8.94;78.06;97503.31;4986229;28;20670;-63
2023/05/12 04:49:59;;;;;;;9.07;6.80;;;;;;;8.92;78.49;97508.50;4985400;28;20705;-63
2023/05/12 04:52:26;;;;;;;6.87;5.37;;;;;;;8.82;79.04;97520.03;4986994;28;20206;-69
2023/05/12 04:54:53;;;;;;;6.20;5.50;;;;;;;8.69;78.97;97512.72;4985270;28;20219;-64
2023/05/12 04:57:21;;;;;;;5.90;4.97;;;;;;;8.80;78.69;97502.88;4968882;28;20629;-66
2023/05/12 04:59:48;;;;;;;9.37;6.23;;;;;;;8.79;78.89;97514.13;4986918;28;20211;-65
2023/05/12 05:02:16;;;;;;;6.57;5.20;;;;;;;8.98;79.02;97507.50;4984930;28;20246;-65
2023/05/12 05:04:43;;;;;;;8.03;5.47;;;;;;;9.11;78.25;97513.94;4986115;28;20681;-70
2023/05/12 05:07:10;;;;;;;9.00;5.60;;;;;;;9.32;77.84;97521.00;4986536;28;20541;-63
2023/05/12 05:09:37;;;;;;;6.40;5.00;;;;;;;9.44;77.05;97517.13;4985660;28;20756;-65
2023/05/12 05:12:06;;;;;;;7.13;5.20;;;;;;;9.58;76.47;97513.19;4985216;28;20192;-64
2023/05/12 05:14:33;;;;;;;10.63;4.97;;;;;;;9.66;75.92;97512.94;4985277;28;20188;-64
2023/05/12 05:17:01;;;;;;;9.53;5.53;;;;;;;9.65;76.27;97511.25;4985541;28;20223;-66
2023/05/12 05:19:28;;;;;;;9.10;5.03;;;;;;;9.64;75.84;97515.56;4984877;28;20903;-65
2023/05/12 05:22:15;;;;;;;8.20;4.63;;;;;;;9.59;76.34;97511.47;4985750;28;20215;-66
2023/05/12 05:24:43;;;;;;;5.87;4.93;;;;;;;9.70;76.25;97510.22;4986425;28;20200;-70
2023/05/12 05:27:11;;;;;;;6.57;5.03;;;;;;;9.96;75.71;97505.84;4986653;28;20230;-65
2023/05/12 05:29:38;;;;;;;9.37;5.63;;;;;;;9.90;75.74;97508.66;4985283;28;20196;-63
2023/05/12 05:32:07;;;;;;;9.17;5.33;;;;;;;10.00;75.90;97512.59;4986249;28;20196;-68
2023/05/12 05:34:34;;;;;;;7.73;5.17;;;;;;;10.13;74.29;97512.16;4987253;28;20199;-64
2023/05/12 05:37:02;;;;;;;6.03;4.13;;;;;;;10.12;73.83;97513.03;4988130;28;20726;-67
2023/05/12 05:39:29;;;;;;;7.77;4.83;;;;;;;10.14;72.87;97510.41;4989566;28;20215;-70
2023/05/12 05:41:57;;;;;;;5.97;3.93;;;;;;;10.23;72.58;97507.47;4988830;28;20187;-65
2023/05/12 05:44:24;;;;;;;7.97;4.73;;;;;;;10.44;72.12;97509.25;4972787;28;20196;-66
2023/05/12 05:46:52;;;;;;;6.47;3.90;;;;;;;10.89;70.13;97515.25;4988618;28;20210;-65
2023/05/12 05:49:20;;;;;;;6.43;3.73;;;;;;;11.11;68.83;97521.25;4988533;28;20667;-65
2023/05/12 05:51:47;;;;;;;5.43;4.10;;;;;;;11.21;69.52;97499.25;4972747;28;20238;-66
2023/05/12 05:54:15;;;;;;;6.00;3.90;;;;;;;11.11;70.25;97505.72;4988328;28;20184;-72
2023/05/12 05:56:48;;;;;;;5.63;3.47;;;;;;;10.75;69.07;97491.66;4956788;28;20271;-68
2023/05/12 05:59:18;;;;;;;6.80;3.20;;;;;;;10.86;68.96;97510.19;4988121;28;20188;-64
2023/05/12 06:01:45;;;;;;;4.30;2.80;;;;;;;10.86;68.88;97504.19;4989920;28;20646;-71
2023/05/12 06:04:12;;;;;;;4.40;3.40;;;;;;;10.93;69.15;97505.59;5004390;28;20220;-63
2023/05/12 06:06:40;;;;;;;5.97;4.10;;;;;;;11.21;67.84;97499.25;4988211;28;20242;-72
2023/05/12 06:09:08;;;;;;;7.07;5.73;;;;;;;11.42;67.81;97497.50;4988326;28;20203;-68
2023/05/12 06:11:35;;;;;;;5.80;4.20;;;;;;;11.50;67.39;97497.22;4989077;28;20295;-69
2023/05/12 06:14:02;;;;;;;6.30;4.17;;;;;;;11.58;66.72;97508.13;4988394;28;20203;-67
2023/05/12 06:16:29;;;;;;;5.87;4.17;;;;;;;11.85;66.51;97514.75;4987597;28;20733;-69
2023/05/12 06:18:56;;;;;;;5.30;4.47;;;;;;;12.04;65.79;97498.31;4989343;28;20280;-68
2023/05/12 06:21:23;;;;;;;7.13;4.70;;;;;;;12.12;65.81;97511.78;4988668;28;20205;-66
2023/05/12 06:23:51;;;;;;;8.60;5.03;;;;;;;12.28;65.77;97512.78;4987699;28;20214;-65
2023/05/12 06:26:17;;;;;;;6.00;3.97;;;;;;;12.59;62.80;97507.03;4989246;28;20185;-65
2023/05/12 06:28:44;;;;;;;6.23;4.33;;;;;;;12.68;61.98;97511.81;4971566;28;20204;-64
2023/05/12 06:31:12;;;;;;;6.57;4.13;;;;;;;12.67;60.31;97512.75;4987944;28;20284;-65
2023/05/12 06:33:39;;;;;;;8.03;4.37;;;;;;;12.83;58.54;97503.31;4987023;28;20215;-71
2023/05/12 06:36:06;;;;;;;4.80;3.30;;;;;;;13.04;56.20;97517.88;4989471;28;20240;-71
2023/05/12 06:38:33;;;;;;;18.33;5.33;;;;;;;13.15;56.10;97508.75;4987471;28;20297;-73
2023/05/12 06:41:00;;;;;;;7.70;3.40;;;;;;;13.30;57.04;97515.78;4989055;28;20192;-71
2023/05/12 06:43:27;;;;;;;6.70;3.93;;;;;;;13.21;54.99;97526.66;4987250;28;20213;-65
2023/05/12 06:45:55;;;;;;;5.17;3.83;;;;;;;12.87;55.01;97528.22;4986411;28;20723;-67
2023/05/12 06:48:23;;;;;;;6.53;3.33;;;;;;;12.89;55.28;97510.81;4988744;28;20253;-64
2023/05/12 06:50:50;;;;;;;5.63;3.73;;;;;;;13.21;54.75;97511.88;4986728;28;20748;-65
2023/05/12 06:53:17;;;;;;;7.47;3.70;;;;;;;13.17;54.99;97512.94;4978875;28;20276;-64
2023/05/12 06:55:45;;;;;;;6.43;4.23;;;;;;;13.27;54.06;97515.97;5007617;28;20236;-68
2023/05/12 06:58:13;;;;;;;9.23;3.43;;;;;;;13.31;54.85;97517.50;5023132;28;20705;-68
2023/05/12 07:00:40;;;;;;;5.37;3.80;;;;;;;13.11;54.03;97507.22;5007771;28;20294;-69
2023/05/12 07:03:08;;;;;;;4.23;3.00;;;;;;;13.25;53.39;97523.00;5007999;28;20201;-68
2023/05/12 07:05:36;;;;;;;7.97;4.20;;;;;;;12.65;54.29;97513.72;5023330;28;20212;-77
2023/05/12 07:08:04;;;;;;;6.13;3.10;;;;;;;12.51;54.89;97522.13;5007470;28;20182;-78
2023/05/12 07:10:32;;;;;;;4.50;3.53;;;;;;;12.61;54.99;97525.97;5007953;28;20191;-65
2023/05/12 07:12:59;;;;;;;5.10;3.20;;;;;;;12.74;54.77;97523.66;5006851;28;20201;-74
2023/05/12 07:15:26;;;;;;;7.40;4.60;;;;;;;12.82;55.06;97535.38;5022816;28;20602;-64
2023/05/12 07:17:54;;;;;;;9.20;5.70;;;;;;;12.85;54.02;97518.81;5006570;28;20196;-65
2023/05/12 07:20:22;;;;;;;5.03;4.40;;;;;;;13.09;53.89;97525.47;5006853;28;20231;-67
2023/05/12 07:22:51;;;;;;;10.37;3.93;;;;;;;12.97;53.87;97508.69;5006078;28;20217;-71
2023/05/12 07:25:18;;;;;;;9.23;3.43;;;;;;;12.83;54.72;97520.66;5006535;28;20258;-69
2023/05/12 07:27:46;;;;;;;4.17;3.40;;;;;;;12.79;54.99;97522.56;5007528;28;20210;-66
2023/05/12 07:30:13;;;;;;;9.40;4.03;;;;;;;12.77;55.33;97515.75;5006656;28;20203;-69
2023/05/12 07:32:41;;;;;;;4.70;3.07;;;;;;;12.64;55.52;97520.66;5007806;28;20804;-67
2023/05/12 07:35:09;;;;;;;6.37;4.10;;;;;;;12.83;55.84;97503.31;5006138;28;20193;-67
2023/05/12 07:37:36;;;;;;;5.10;3.17;;;;;;;13.25;55.11;97528.19;5007120;28;20311;-70
2023/05/12 07:40:03;;;;;;;8.47;3.73;;;;;;;13.20;54.10;97535.38;5007092;28;20189;-68
2023/05/12 07:42:31;;;;;;;3.73;3.30;;;;;;;13.08;54.58;97534.22;5006883;28;20206;-64
2023/05/12 07:44:58;;;;;;;4.37;3.20;;;;;;;13.01;55.03;97520.63;5007296;28;20189;-72
2023/05/12 07:47:27;;;;;;;6.33;3.83;;;;;;;13.20;54.42;97535.38;5006311;28;20197;-69
2023/05/12 07:49:54;;;;;;;6.13;2.90;;;;;;;13.45;53.53;97538.47;5006093;28;20659;-66
2023/05/12 07:52:22;;;;;;;7.80;3.47;;;;;;;13.77;52.84;97524.69;5005492;28;20221;-64
2023/05/12 07:54:49;;;;;;;7.47;3.10;;;;;;;13.79;52.67;97523.69;5005609;28;20253;-67
2023/05/12 07:57:17;;;;;;;6.57;3.00;;;;;;;13.73;52.42;97521.41;5005617;28;20220;-67
2023/05/12 07:59:44;;;;;;;5.17;3.13;;;;;;;14.15;50.92;97518.34;5006265;28;20198;-66
2023/05/12 08:02:11;;;;;;;5.70;3.03;;;;;;;14.46;50.77;97518.47;5006793;28;20194;-69
2023/05/12 08:04:39;;;;;;;4.47;3.17;;;;;;;14.67;50.16;97519.88;4989295;28;20297;-67
2023/05/12 08:07:09;;;;;;;5.13;2.90;;;;;;;14.39;49.90;97511.88;4986400;28;20197;-63
2023/05/12 08:09:36;;;;;;;4.90;2.63;;;;;;;14.43;48.77;97502.97;5006031;28;20289;-67
2023/05/12 08:12:04;;;;;;;5.00;2.83;;;;;;;14.90;48.56;97523.03;5021746;28;20277;-71
2023/05/12 08:14:31;;;;;;;5.63;3.30;;;;;;;14.72;48.61;97522.25;5004998;28;20694;-66
2023/05/12 08:16:58;;;;;;;6.20;3.00;;;;;;;14.78;49.47;97516.69;5005076;28;20644;-63
2023/05/12 08:19:25;;;;;;;6.93;3.10;;;;;;;14.82;49.08;97513.00;5004954;28;20229;-70
2023/05/12 08:21:52;;;;;;;3.17;2.73;;;;;;;14.78;49.15;97521.06;5021027;28;20551;-66
2023/05/12 08:24:20;;;;;;;5.20;3.90;;;;;;;14.68;48.51;97515.53;5006922;28;20198;-64
2023/05/12 08:26:47;;;;;;;2.63;2.00;;;;;;;14.70;47.32;97516.28;5005779;28;20192;-67
2023/05/12 08:29:15;;;;;;;3.10;2.77;;;;;;;14.57;47.28;97505.66;5006063;28;20195;-65
2023/05/12 08:31:42;;;;;;;6.07;2.77;;;;;;;14.76;48.39;97515.09;5005750;28;20195;-65
2023/05/12 08:34:09;;;;;;;4.07;2.60;;;;;;;14.38;49.14;97515.44;5006231;28;20930;-65
2023/05/12 08:36:40;;;;;;;4.33;2.50;;;;;;;14.39;48.51;97524.06;5004975;28;20238;-68
2023/05/12 08:39:10;;;;;;;5.50;3.27;;;;;;;14.22;49.20;97513.69;5005868;28;20199;-72
2023/05/12 08:41:54;;;;;;;5.10;2.90;;;;;;;14.08;49.42;97516.97;5004971;28;20275;-77
2023/05/12 08:44:22;;;;;;;4.13;2.50;;;;;;;14.26;49.40;97513.41;5004496;28;20225;-65
2023/05/12 08:46:51;;;;;;;5.70;3.27;;;;;;;14.47;50.06;97522.72;5006457;28;20237;-72
2023/05/12 08:49:21;;;;;;;8.47;4.40;;;;;;;15.07;48.58;97526.38;5005794;28;20673;-67
2023/05/12 08:51:52;;;;;;;3.73;3.07;;;;;;;15.24;49.04;97520.19;5005928;28;20684;-66
2023/05/12 08:54:26;;;;;;;6.27;3.43;;;;;;;15.97;47.54;97509.81;5006236;28;20202;-64
2023/05/12 08:56:54;;;;;;;4.73;2.80;;;;;;;15.92;46.71;97517.09;5005384;28;20249;-67
2023/05/12 08:59:24;;;;;;;4.23;3.00;;;;;;;16.03;45.93;97519.88;5006143;28;20670;-68
2023/05/12 09:01:53;;;;;;;4.73;3.10;;;;;;;15.20;48.52;97514.31;5005277;28;20211;-65
2023/05/12 09:04:21;;;;;;;5.83;3.73;;;;;;;15.69;46.33;97520.22;5004238;28;20681;-65
2023/05/12 09:06:49;;;;;;;11.27;4.17;;;;;;;16.13;45.48;97528.03;5014791;28;20207;-71
2023/05/12 09:09:19;;;;;;;15.30;5.80;;;;;;;15.75;45.14;97530.28;5005513;28;20191;-67
2023/05/12 09:11:48;;;;;;;4.33;2.83;;;;;;;16.14;45.46;97517.47;5024851;28;20199;-65
2023/05/12 09:14:20;;;;;;;5.33;2.87;;;;;;;16.46;45.06;97536.44;4975432;28;20196;-67
2023/05/12 09:16:51;;;;;;;4.87;2.20;;;;;;;15.66;44.81;97533.41;5009774;28;20659;-70
2023/05/12 09:19:21;;;;;;;4.67;2.50;;;;;;;15.97;45.02;97532.50;5009207;28;20237;-71
2023/05/12 09:21:48;;;;;;;3.37;2.40;;;;;;;15.35;45.91;97525.66;5009520;28;20810;-73
2023/05/12 09:24:15;;;;;;;4.60;2.33;;;;;;;15.20;46.69;97516.94;5009691;28;20187;-67
2023/05/12 09:26:50;;;;;;;2.50;2.30;;;;;;;15.54;45.93;97528.91;5009350;28;20678;-68
2023/05/12 09:29:18;;;;;;;8.80;4.00;;;;;;;15.92;45.69;97517.09;5009849;28;20183;-67
2023/05/12 09:32:01;;;;;;;4.30;2.60;;;;;;;15.82;44.92;97518.56;5023640;28;20199;-72
2023/05/12 09:34:31;;;;;;;4.60;2.50;;;;;;;15.80;45.89;97525.66;4991754;28;20210;-66
2023/05/12 09:37:00;;;;;;;6.23;2.60;;;;;;;15.86;46.03;97516.59;5009112;28;20230;-70
2023/05/12 09:39:27;;;;;;;3.43;2.43;;;;;;;16.03;45.21;97513.84;5007630;28;20191;-69
2023/05/12 09:41:55;;;;;;;7.77;3.20;;;;;;;15.48;45.57;97516.22;5007943;28;20191;-72
2023/05/12 09:44:24;;;;;;;6.33;2.53;;;;;;;15.68;45.48;97510.72;5007240;28;20259;-65
2023/05/12 09:46:51;;;;;;;3.23;2.40;;;;;;;15.24;46.54;97470.63;5009663;28;20198;-72
2023/05/12 09:49:26;;;;;;;3.00;2.27;;;;;;;15.69;45.79;97509.75;5008726;28;20191;-70
2023/05/12 09:51:57;;;;;;;2.90;2.43;;;;;;;15.61;45.67;97506.75;5008886;28;20187;-71
2023/05/12 09:54:29;;;;;;;5.03;2.50;;;;;;;15.89;45.68;97500.75;5007383;28;20179;-71
2023/05/12 09:56:58;;;;;;;5.47;3.27;;;;;;;16.17;45.34;97514.69;5007321;28;20599;-65
2023/05/12 09:59:31;;;;;;;3.33;2.20;;;;;;;15.87;45.49;97524.34;5009851;28;20187;-69
2023/05/12 10:02:00;;;;;;;6.03;2.83;;;;;;;15.31;47.52;97508.50;5006962;28;20198;-67
2023/05/12 10:04:31;;;;;;;2.90;2.47;;;;;;;15.75;46.69;97498.94;5008917;28;20203;-64
2023/05/12 10:06:59;;;;;;;6.10;2.33;;;;;;;15.53;47.09;97508.97;5000759;28;20219;-67
2023/05/12 10:09:32;;;;;;;15.00;3.10;;;;;;;15.62;46.92;97512.81;4989288;28;20248;-71
2023/05/12 10:12:03;;;;;;;3.43;2.47;;;;;;;15.82;46.77;97513.34;4989178;28;20869;-68
2023/05/12 10:14:31;;;;;;;3.80;2.93;;;;;;;16.32;45.47;97509.47;4988946;28;20642;-65
2023/05/12 10:16:58;;;;;;;5.43;2.87;;;;;;;15.38;45.91;97497.63;4987518;28;20270;-65
2023/05/12 10:19:27;;;;;;;3.20;2.40;;;;;;;15.93;45.81;97500.47;4988466;28;20228;-66
2023/05/12 10:21:56;;;;;;;4.70;2.30;;;;;;;15.74;46.38;97506.88;4988172;28;20188;-65
2023/05/12 10:24:27;;;;;;;3.97;2.77;;;;;;;16.11;45.94;97503.75;4988649;28;20199;-68
2023/05/12 10:26:58;;;;;;;3.17;2.70;;;;;;;16.20;45.33;97496.19;4988842;28;20188;-65
2023/05/12 10:29:31;;;;;;;7.17;3.43;;;;;;;16.66;44.66;97483.78;4989075;28;20287;-72
2023/05/12 10:32:02;;;;;;;8.23;2.70;;;;;;;16.91;44.45;97493.53;4988411;28;20557;-69
2023/05/12 10:34:33;;;;;;;3.67;2.33;;;;;;;16.85;44.57;97493.91;4989392;28;20215;-74
2023/05/12 10:37:07;;;;;;;4.03;2.60;;;;;;;16.76;44.46;97503.19;4987978;28;20225;-72
2023/05/12 10:39:34;;;;;;;5.70;3.03;;;;;;;16.85;44.32;97488.69;5003415;28;20674;-74
2023/05/12 10:42:10;;;;;;;4.57;2.40;;;;;;;17.06;42.43;97492.56;5003640;28;20196;-73
2023/05/12 10:44:49;;;;;;;4.20;2.93;;;;;;;17.00;43.30;97480.69;4988535;28;20191;-69
2023/05/12 10:47:17;;;;;;;4.63;2.90;;;;;;;17.23;42.89;97462.69;4988563;28;20254;-65
2023/05/12 10:49:44;;;;;;;4.10;2.73;;;;;;;16.63;43.82;97494.41;4986558;28;20192;-66
2023/05/12 10:52:12;;;;;;;4.47;2.57;;;;;;;16.22;45.33;97491.72;4989001;28;20200;-69
2023/05/12 10:54:44;;;;;;;5.10;2.63;;;;;;;16.58;44.29;97485.19;4987841;28;20188;-70
2023/05/12 10:57:13;;;;;;;4.07;2.63;;;;;;;16.99;43.35;97481.63;4986904;28;20220;-78
2023/05/12 10:59:49;;;;;;;2.53;2.33;;;;;;;16.75;43.66;97477.97;4988689;28;20553;-66
2023/05/12 11:02:19;;;;;;;3.40;2.50;;;;;;;15.94;44.99;97462.13;4988068;28;21136;-68
2023/05/12 11:04:49;;;;;;;4.07;2.57;;;;;;;16.13;45.56;97468.78;4988512;28;20192;-66
2023/05/12 11:07:28;;;;;;;5.47;3.70;;;;;;;16.45;45.20;97474.63;4991615;28;20204;-64
2023/05/12 11:10:01;;;;;;;5.93;2.50;;;;;;;15.54;47.55;97476.72;5007831;28;20227;-68
2023/05/12 11:12:36;;;;;;;4.40;2.67;;;;;;;15.82;46.69;97473.31;5005849;28;20641;-77
2023/05/12 11:15:05;;;;;;;5.20;2.97;;;;;;;15.52;47.47;97478.56;5006981;28;20223;-75
2023/05/12 11:17:36;;;;;;;3.73;2.43;;;;;;;15.29;49.20;97476.44;5006314;28;20238;-65
2023/05/12 11:20:04;;;;;;;3.40;2.70;;;;;;;15.90;48.15;97476.31;5007396;28;20266;-76
2023/05/12 11:22:32;;;;;;;5.20;3.07;;;;;;;16.06;47.08;97459.63;5006382;28;20667;-66
2023/05/12 11:25:09;;;;;;;6.90;4.00;;;;;;;16.56;46.02;97455.69;5005590;28;20282;-69
2023/05/12 11:27:41;;;;;;;3.37;2.83;;;;;;;16.63;45.65;97467.44;5007418;28;20201;-69
2023/05/12 11:30:09;;;;;;;4.17;2.50;;;;;;;16.89;45.20;97470.09;5007489;28;20191;-67
2023/05/12 11:32:37;;;;;;;3.93;2.57;;;;;;;16.88;45.27;97488.47;5005428;28;20203;-69
2023/05/12 11:35:16;;;;;;;3.70;3.00;;;;;;;15.95;46.93;97480.31;5007531;28;20291;-67
2023/05/12 11:37:45;;;;;;;4.60;2.60;;;;;;;15.61;48.24;97472.81;5006671;28;20238;-76
2023/05/12 11:40:18;;;;;;;6.70;2.73;;;;;;;16.28;47.41;97472.19;5005923;28;20207;-65
2023/05/12 11:42:50;;;;;;;4.00;2.67;;;;;;;16.36;46.08;97475.22;5007390;28;20195;-71